Time;durP1;ratioP1;P1;durP2;ratioP2;P2;SDS_P1;SDS_P2;PMS_P1;PMS_P2;Temp;Humidity;BMP_temperature;BMP_pressure;BME280_temperature;BME280_humidity;BME280_pressure;Samples;Min_cycle;Max_cycle;Signal;HPM_P1;HPM_P2
2021/10/29 00:01:31;;;;;;;51.10;30.45;;;;;;;5.63;67.55;100665.98;2060812;86;29784;-62
2021/10/29 00:04:32;;;;;;;48.23;30.23;;;;;;;5.62;67.54;100668.69;2061340;86;27684;-64
2021/10/29 00:07:34;;;;;;;49.20;31.62;;;;;;;5.60;67.52;100667.84;2024144;87;29144;-62
2021/10/29 00:10:36;;;;;;;50.23;30.90;;;;;;;5.61;67.56;100664.28;2055562;86;31180;-63
2021/10/29 00:13:38;;;;;;;53.13;31.07;;;;;;;5.59;67.52;100661.67;2055113;84;34131;-63
2021/10/29 00:16:40;;;;;;;50.15;30.08;;;;;;;5.59;67.50;100661.67;2023943;86;30539;-62
2021/10/29 00:19:42;;;;;;;45.70;29.40;;;;;;;5.60;67.56;100661.20;2052442;86;28085;-61
2021/10/29 00:22:44;;;;;;;43.35;28.60;;;;;;;5.59;67.43;100661.67;2064566;86;29541;-61
2021/10/29 00:25:46;;;;;;;48.25;29.10;;;;;;;5.58;67.43;100665.67;2015913;88;32275;-62
2021/10/29 00:28:48;;;;;;;44.18;28.17;;;;;;;5.55;67.39;100657.32;2013330;87;34161;-63
2021/10/29 00:31:50;;;;;;;46.02;29.45;;;;;;;5.54;67.42;100658.23;1989951;89;30541;-61
2021/10/29 00:34:52;;;;;;;48.30;29.95;;;;;;;5.52;67.34;100664.50;1989860;89;27732;-61
2021/10/29 00:37:54;;;;;;;50.08;29.82;;;;;;;5.51;67.42;100659.62;1989815;89;29475;-61
2021/10/29 00:40:56;;;;;;;42.78;28.65;;;;;;;5.52;67.43;100655.20;1989308;89;32210;-61
2021/10/29 00:43:57;;;;;;;40.83;27.30;;;;;;;5.51;67.41;100654.31;1989164;89;33404;-61
2021/10/29 00:46:59;;;;;;;42.08;27.00;;;;;;;5.51;67.41;100643.68;1988949;89;29391;-61
2021/10/29 00:50:03;;;;;;;44.90;28.00;;;;;;;5.53;67.45;100648.98;1989919;89;27764;-61
2021/10/29 00:53:05;;;;;;;41.33;27.32;;;;;;;5.55;67.39;100648.02;1988909;89;28753;-61
2021/10/29 00:56:07;;;;;;;40.67;25.52;;;;;;;5.55;67.34;100649.35;1989180;87;30858;-61
2021/10/29 00:59:09;;;;;;;52.33;28.85;;;;;;;5.56;67.31;100647.11;1987837;89;33008;-63
2021/10/29 01:02:11;;;;;;;41.60;27.65;;;;;;;5.54;67.23;100643.61;1989303;87;29933;-62
2021/10/29 01:05:13;;;;;;;49.23;28.12;;;;;;;5.53;67.21;100635.22;1988912;89;27742;-61
2021/10/29 01:08:15;;;;;;;46.50;27.48;;;;;;;5.51;67.19;100629.53;1989853;89;28532;-62
2021/10/29 01:11:18;;;;;;;44.15;27.50;;;;;;;5.48;67.19;100627.36;1989293;89;31155;-62
2021/10/29 01:14:20;;;;;;;46.95;27.48;;;;;;;5.47;67.19;100633.59;1992055;89;34169;-62
2021/10/29 01:17:22;;;;;;;41.88;24.67;;;;;;;5.44;67.15;100620.36;1992170;89;30183;-61
2021/10/29 01:20:27;;;;;;;47.10;26.93;;;;;;;5.42;67.14;100623.51;1992761;89;28253;-61
2021/10/29 01:23:30;;;;;;;41.05;26.55;;;;;;;5.42;67.21;100618.20;1991726;89;28712;-61
2021/10/29 01:26:31;;;;;;;42.75;25.88;;;;;;;5.40;67.18;100613.84;1938561;90;32376;-61
2021/10/29 01:29:33;;;;;;;43.45;27.37;;;;;;;5.36;67.25;100613.05;1964548;90;34205;-61
2021/10/29 01:32:37;;;;;;;45.40;27.95;;;;;;;5.32;67.22;100610.89;1992717;89;29675;-61
2021/10/29 01:35:38;;;;;;;44.40;26.37;;;;;;;5.28;67.23;100613.66;1992408;89;27740;-61
2021/10/29 01:38:43;;;;;;;44.00;25.85;;;;;;;5.25;67.23;100607.08;1988805;89;28511;-60
2021/10/29 01:41:47;;;;;;;38.15;26.17;;;;;;;5.23;67.28;100609.78;1988259;89;31898;-61
2021/10/29 01:44:49;;;;;;;41.60;26.82;;;;;;;5.20;67.30;100603.67;1988388;87;33398;-61
2021/10/29 01:47:51;;;;;;;43.02;26.07;;;;;;;5.18;67.37;100614.31;1989075;89;30472;-61
2021/10/29 01:50:52;;;;;;;41.68;26.50;;;;;;;5.13;67.37;100606.45;1987741;89;27784;-62
2021/10/29 01:53:54;;;;;;;41.48;25.75;;;;;;;5.12;67.38;100607.36;1988135;89;28451;-61
2021/10/29 01:56:57;;;;;;;37.78;26.45;;;;;;;5.10;67.49;100603.00;1977732;89;31404;-61
2021/10/29 01:59:59;;;;;;;44.85;26.85;;;;;;;5.07;67.46;100598.61;1957378;89;34187;-61
2021/10/29 02:03:01;;;;;;;43.35;25.70;;;;;;;5.05;67.49;100599.56;1957086;91;29413;-60
2021/10/29 02:06:04;;;;;;;41.02;26.75;;;;;;;5.00;67.62;100597.88;1956223;91;27819;-61
2021/10/29 02:09:06;;;;;;;39.75;25.85;;;;;;;5.00;67.66;100601.86;1981979;88;29892;-61
2021/10/29 02:12:08;;;;;;;43.05;25.20;;;;;;;4.97;67.73;100595.28;1984982;88;31935;-60
2021/10/29 02:15:10;;;;;;;39.40;25.25;;;;;;;4.95;67.79;100587.83;2013615;88;33764;-61
2021/10/29 02:18:12;;;;;;;38.75;25.88;;;;;;;4.94;67.84;100591.39;1985958;88;29853;-61
2021/10/29 02:21:14;;;;;;;45.95;25.70;;;;;;;4.91;67.89;100593.22;1981205;88;27740;-60
2021/10/29 02:24:16;;;;;;;41.02;25.72;;;;;;;4.89;67.96;100588.39;1987656;88;29875;-62
2021/10/29 02:27:17;;;;;;;43.38;25.97;;;;;;;4.86;67.89;100587.58;2014066;88;32013;-61
2021/10/29 02:30:19;;;;;;;40.88;25.68;;;;;;;4.84;68.10;100592.04;1985012;88;32760;-62
2021/10/29 02:33:21;;;;;;;39.83;26.40;;;;;;;4.82;68.20;100587.65;1981222;89;30614;-61
2021/10/29 02:36:23;;;;;;;38.05;24.67;;;;;;;4.81;68.15;100588.12;1980887;88;27847;-63
2021/10/29 02:39:25;;;;;;;39.27;26.05;;;;;;;4.79;68.15;100583.29;1975949;88;29924;-62
2021/10/29 02:42:27;;;;;;;38.70;24.32;;;;;;;4.80;68.26;100582.39;1986874;88;31404;-63
2021/10/29 02:45:30;;;;;;;42.78;26.52;;;;;;;4.78;68.28;100580.22;1986625;88;32996;-63
2021/10/29 02:48:32;;;;;;;40.48;26.17;;;;;;;4.77;68.36;100582.45;1986678;88;30528;-63
2021/10/29 02:51:34;;;;;;;43.73;27.48;;;;;;;4.77;68.46;100574.95;1986213;89;28384;-63
2021/10/29 02:54:36;;;;;;;40.60;26.00;;;;;;;4.75;68.46;100580.27;1987182;88;29076;-62
2021/10/29 02:57:38;;;;;;;41.45;26.00;;;;;;;4.74;68.40;100577.20;1971102;88;32211;-62
2021/10/29 03:00:41;;;;;;;45.88;26.82;;;;;;;4.70;68.53;100576.86;1982647;89;33417;-63
2021/10/29 03:03:42;;;;;;;41.83;27.35;;;;;;;4.65;68.49;100575.61;1949751;91;30479;-62
2021/10/29 03:06:44;;;;;;;45.60;27.98;;;;;;;4.59;68.67;100573.09;1978965;90;27769;-63
2021/10/29 03:09:47;;;;;;;45.92;26.62;;;;;;;4.54;68.59;100565.67;1978958;90;29915;-64
2021/10/29 03:12:49;;;;;;;49.88;27.20;;;;;;;4.50;68.64;100566.20;1979605;89;30843;-62
2021/10/29 03:15:51;;;;;;;44.30;27.73;;;;;;;4.45;68.81;100566.73;1981868;89;33568;-63
2021/10/29 03:18:53;;;;;;;45.12;28.32;;;;;;;4.40;68.83;100560.20;1981719;89;29393;-62
2021/10/29 03:21:56;;;;;;;50.58;30.02;;;;;;;4.37;68.83;100561.59;1981498;89;27553;-62
2021/10/29 03:24:58;;;;;;;46.20;27.60;;;;;;;4.35;68.92;100561.20;1981761;89;29480;-60
2021/10/29 03:28:01;;;;;;;46.50;29.75;;;;;;;4.32;68.85;100555.48;1981703;89;31202;-65
2021/10/29 03:31:03;;;;;;;45.88;27.35;;;;;;;4.32;68.91;100558.61;1981456;89;34030;-63
2021/10/29 03:34:05;;;;;;;47.08;29.90;;;;;;;4.31;69.05;100553.73;1984074;88;30029;-62
2021/10/29 03:37:21;;;;;;;50.92;30.35;;;;;;;4.33;68.96;100551.07;1991661;88;27723;-63
2021/10/29 03:43:36;;;;;;;41.33;27.45;;;;;;;4.33;68.80;100548.42;1977827;89;31799;-61
2021/10/29 03:46:36;;;;;;;43.40;30.52;;;;;;;4.30;68.81;100544.06;1981782;89;34456;-60
2021/10/29 03:49:48;;;;;;;42.60;27.55;;;;;;;4.31;68.98;100549.76;1982570;89;29338;-60
2021/10/29 03:52:58;;;;;;;47.98;27.58;;;;;;;4.33;69.07;100547.95;1983873;89;28021;-60
2021/10/29 03:55:54;;;;;;;41.25;27.70;;;;;;;4.35;69.13;100545.29;1982511;89;28679;-62
2021/10/29 03:58:59;;;;;;;46.65;27.82;;;;;;;4.35;69.02;100551.45;1992678;88;31082;-60
2021/10/29 04:02:02;;;;;;;39.15;26.73;;;;;;;4.36;69.00;100545.25;2018186;87;33776;-61
2021/10/29 04:05:05;;;;;;;47.53;28.05;;;;;;;4.37;69.04;100548.32;2016286;86;29848;-62
2021/10/29 04:08:09;;;;;;;46.68;26.80;;;;;;;4.37;69.03;100539.03;2010852;88;27780;-62
2021/10/29 04:11:11;;;;;;;46.40;28.70;;;;;;;4.38;69.02;100538.60;2014132;88;28696;-61
2021/10/29 04:14:14;;;;;;;40.73;26.82;;;;;;;4.38;68.84;100543.44;2014633;88;31794;-61
2021/10/29 04:17:15;;;;;;;46.85;30.23;;;;;;;4.35;68.82;100539.98;2014514;88;33434;-61
2021/10/29 04:20:18;;;;;;;50.63;30.37;;;;;;;4.34;68.80;100534.25;2014557;88;29689;-61
2021/10/29 04:23:20;;;;;;;46.70;28.95;;;;;;;4.31;68.84;100541.80;2012702;88;27751;-62
2021/10/29 04:26:21;;;;;;;42.83;28.52;;;;;;;4.32;68.89;100528.11;2011365;86;28600;-62
2021/10/29 04:29:26;;;;;;;43.38;27.13;;;;;;;4.32;68.91;100528.96;2009190;88;31528;-62
2021/10/29 04:32:27;;;;;;;44.98;26.70;;;;;;;4.32;68.88;100534.27;2011907;88;32699;-62
2021/10/29 04:35:29;;;;;;;40.65;26.02;;;;;;;4.32;68.80;100529.43;2014449;88;30407;-62
2021/10/29 04:38:31;;;;;;;40.95;25.43;;;;;;;4.32;68.86;100532.08;2014342;88;28146;-61
2021/10/29 04:41:33;;;;;;;40.85;24.20;;;;;;;4.33;68.90;100527.20;2016948;88;29377;-62
2021/10/29 04:44:35;;;;;;;40.35;25.68;;;;;;;4.34;68.90;100528.48;2013390;86;31069;-62
2021/10/29 04:47:37;;;;;;;36.15;25.20;;;;;;;4.37;68.94;100531.55;1988782;89;33800;-62
2021/10/29 04:50:39;;;;;;;40.15;24.47;;;;;;;4.40;68.87;100532.35;2009490;87;29710;-62
2021/10/29 04:53:41;;;;;;;38.20;25.30;;;;;;;4.40;68.86;100540.31;2013738;88;28156;-62
2021/10/29 04:56:43;;;;;;;40.98;24.40;;;;;;;4.42;68.87;100533.63;2018244;88;29888;-62
2021/10/29 04:59:45;;;;;;;47.03;29.48;;;;;;;4.44;68.90;100537.12;2060968;86;31411;-62
2021/10/29 05:02:47;;;;;;;45.80;26.00;;;;;;;4.47;68.78;100524.28;2026516;87;33482;-62
2021/10/29 05:05:49;;;;;;;42.83;25.50;;;;;;;4.47;68.77;100529.11;2061767;86;29691;-62
2021/10/29 05:08:50;;;;;;;41.50;24.47;;;;;;;4.49;68.77;100532.61;2055397;86;27689;-61
2021/10/29 05:11:52;;;;;;;53.48;29.02;;;;;;;4.51;68.87;100533.46;2055620;86;29299;-61
2021/10/29 05:14:54;;;;;;;45.88;26.02;;;;;;;4.55;68.81;100532.47;2055382;86;32396;-61
2021/10/29 05:17:56;;;;;;;44.88;26.30;;;;;;;4.58;68.83;100538.19;2027125;87;33659;-61
2021/10/29 05:20:58;;;;;;;39.95;23.62;;;;;;;4.58;68.72;100530.66;2054430;86;29439;-62
2021/10/29 05:23:59;;;;;;;44.60;25.20;;;;;;;4.58;68.69;100538.19;2021590;87;27664;-62
2021/10/29 05:27:01;;;;;;;42.43;25.97;;;;;;;4.58;68.67;100528.90;2029196;87;29033;-62
2021/10/29 05:30:06;;;;;;;48.35;27.27;;;;;;;4.60;68.62;100531.50;2063621;85;31589;-62
2021/10/29 05:33:08;;;;;;;38.08;25.40;;;;;;;4.60;68.68;100531.50;2073188;85;33606;-61
2021/10/29 05:36:09;;;;;;;52.00;28.12;;;;;;;4.60;68.66;100524.44;2033614;87;30434;-61
2021/10/29 05:39:12;;;;;;;50.10;29.57;;;;;;;4.61;68.62;100522.64;2029298;87;27703;-62
2021/10/29 05:42:14;;;;;;;49.45;27.30;;;;;;;4.60;68.60;100524.44;2025410;87;29515;-62
2021/10/29 05:45:16;;;;;;;47.43;25.48;;;;;;;4.61;68.57;100522.64;2019307;87;31443;-62
2021/10/29 05:48:18;;;;;;;51.80;28.32;;;;;;;4.61;68.52;100522.64;2014821;86;34327;-62
2021/10/29 05:51:21;;;;;;;45.55;27.93;;;;;;;4.61;68.51;100531.48;2031708;87;30026;-62
2021/10/29 05:57:34;;;;;;;49.63;30.40;;;;;;;4.62;68.50;100533.67;2030407;87;29868;-62
2021/10/29 06:00:36;;;;;;;45.52;29.52;;;;;;;4.63;68.47;100533.66;2001076;88;31851;-62
2021/10/29 06:03:38;;;;;;;48.50;29.30;;;;;;;4.60;68.44;100523.55;1989147;89;32929;-63
2021/10/29 06:06:40;;;;;;;53.80;29.70;;;;;;;4.65;68.38;100529.64;1988837;89;30305;-63
2021/10/29 06:09:42;;;;;;;44.42;28.90;;;;;;;4.64;68.38;100530.55;1989579;89;27730;-63
2021/10/29 06:12:46;;;;;;;46.77;28.55;;;;;;;4.65;68.42;100525.66;2049724;86;29951;-62
2021/10/29 06:15:48;;;;;;;49.53;31.30;;;;;;;4.64;68.45;100527.42;2050183;86;31101;-64
2021/10/29 06:18:52;;;;;;;57.58;29.15;;;;;;;4.66;68.38;100526.08;2011864;88;33339;-65
2021/10/29 06:21:58;;;;;;;47.40;28.47;;;;;;;4.69;68.38;100537.49;2027410;87;29531;-62
2021/10/29 06:25:05;;;;;;;44.08;29.87;;;;;;;4.75;68.39;100541.78;2027107;87;27634;-65
2021/10/29 06:28:14;;;;;;;43.65;28.52;;;;;;;4.83;68.37;100531.00;2026889;87;29971;-70
2021/10/29 06:31:16;;;;;;;49.77;27.37;;;;;;;4.90;68.40;100541.03;2026040;87;32438;-66
2021/10/29 06:34:20;;;;;;;45.30;28.12;;;;;;;4.98;68.29;100544.40;2015860;88;32962;-63
2021/10/29 06:37:22;;;;;;;44.85;27.75;;;;;;;5.08;68.19;100551.70;1968614;89;28967;-62
2021/10/29 06:40:27;;;;;;;44.98;27.95;;;;;;;5.21;68.07;100557.62;2052495;84;28236;-62
2021/10/29 06:43:34;;;;;;;52.13;27.58;;;;;;;5.32;67.93;100558.23;2054820;86;28675;-66
2021/10/29 06:59:57;;;;;;;51.33;28.95;;;;;;;5.68;67.57;100559.58;2055871;85;29524;-61
2021/10/29 07:39:57;;;;;;;47.85;28.42;;;;;;;6.72;67.39;100558.12;2055541;85;27706;-66
2021/10/29 07:45:53;;;;;;;40.52;22.93;;;;;;;11.53;62.09;100542.02;1947420;90;27769;-61
2021/10/29 07:48:55;;;;;;;31.77;19.90;;;;;;;11.88;61.18;100539.38;1986253;89;30091;-59
2021/10/29 07:51:58;;;;;;;31.57;19.70;;;;;;;12.22;60.87;100534.08;1992382;89;32272;-64
2021/10/29 07:55:01;;;;;;;38.78;20.32;;;;;;;12.50;59.82;100533.48;1992459;89;33401;-64
2021/10/29 07:58:03;;;;;;;32.75;17.82;;;;;;;12.72;59.01;100533.17;1992653;89;29528;-61
2021/10/29 08:01:06;;;;;;;25.55;16.05;;;;;;;12.89;57.73;100532.71;1992665;89;28275;-62
2021/10/29 08:04:08;;;;;;;21.17;15.83;;;;;;;13.00;58.23;100523.55;1992566;89;29660;-61
2021/10/29 08:07:10;;;;;;;25.62;16.35;;;;;;;13.14;57.32;100531.34;1992619;89;31894;-60
2021/10/29 08:10:13;;;;;;;25.60;15.18;;;;;;;13.23;57.04;100532.16;1971756;89;34325;-62
2021/10/29 08:13:16;;;;;;;27.52;15.20;;;;;;;13.31;56.94;100529.91;2049680;86;30528;-60
2021/10/29 08:16:18;;;;;;;24.95;17.12;;;;;;;13.33;56.71;100528.46;2032852;87;27687;-61
2021/10/29 08:19:33;;;;;;;25.62;16.93;;;;;;;13.27;56.11;100528.34;2052050;86;29670;-63
2021/10/29 08:32:01;;;;;;;33.23;19.10;;;;;;;13.17;55.92;100517.70;2131542;83;27698;-60
2021/10/29 08:35:06;;;;;;;39.80;19.80;;;;;;;13.10;54.51;100517.19;2121407;83;28570;-60
2021/10/29 08:38:07;;;;;;;29.90;20.37;;;;;;;13.04;54.44;100514.37;2121557;83;31950;-61
2021/10/29 08:41:09;;;;;;;29.65;18.77;;;;;;;13.01;54.90;100510.50;2121494;83;33404;-61
2021/10/29 08:44:13;;;;;;;37.55;19.23;;;;;;;12.96;54.20;100509.03;2120867;83;30568;-61
2021/10/29 08:47:21;;;;;;;29.67;19.27;;;;;;;12.94;54.03;100501.52;2121565;83;27697;-61
2021/10/29 08:50:19;;;;;;;31.00;19.55;;;;;;;12.94;54.26;100497.49;2121353;83;28697;-60
2021/10/29 08:53:21;;;;;;;25.55;18.35;;;;;;;12.92;53.83;100493.06;2121116;83;30865;-61
2021/10/29 08:56:26;;;;;;;23.80;17.20;;;;;;;12.96;54.36;100496.47;2121177;83;34285;-62
2021/10/29 08:59:33;;;;;;;22.20;16.07;;;;;;;13.04;54.30;100492.00;2121477;83;30136;-61
2021/10/29 09:02:35;;;;;;;22.02;16.10;;;;;;;13.11;53.95;100487.98;2121619;83;27567;-61
2021/10/29 09:05:48;;;;;;;22.10;14.40;;;;;;;13.21;53.99;100480.26;2121305;83;28809;-60
2021/10/29 09:09:06;;;;;;;19.85;13.58;;;;;;;13.31;53.44;100483.28;2121312;83;32210;-61
2021/10/29 09:32:09;;;;;;;17.75;12.80;;;;;;;13.87;52.06;100485.44;2117930;82;30568;-62
2021/10/29 09:35:14;;;;;;;21.45;13.15;;;;;;;13.96;51.37;100489.78;2125703;82;27791;-62
2021/10/29 09:38:16;;;;;;;;;;;;;;;14.01;50.52;100473.34;2127633;82;28656;-65
2021/10/29 09:41:23;;;;;;;17.25;11.20;;;;;;;14.06;50.56;100482.02;2132847;82;31363;-64
2021/10/29 09:44:38;;;;;;;17.65;11.30;;;;;;;14.12;48.97;100483.45;2125935;82;34119;-63
2021/10/29 09:47:42;;;;;;;16.45;11.28;;;;;;;14.16;49.66;100478.23;2118853;82;29757;-64
2021/10/29 09:50:57;;;;;;;17.50;11.50;;;;;;;14.30;49.86;100472.50;2123410;82;28048;-62
2021/10/29 09:54:03;;;;;;;16.48;11.15;;;;;;;14.30;49.86;100472.50;2119694;82;29204;-60
2021/10/29 09:57:07;;;;;;;17.07;10.00;;;;;;;14.37;48.61;100476.05;2134207;82;31057;-61
2021/10/29 10:00:13;;;;;;;19.30;10.80;;;;;;;14.43;49.02;100470.75;2113524;82;33210;-60
2021/10/29 10:03:21;;;;;;;20.10;11.33;;;;;;;14.50;49.18;100466.69;2128764;82;29316;-60
2021/10/29 10:06:24;;;;;;;19.62;10.80;;;;;;;14.57;48.16;100463.12;2116535;82;27627;-61
2021/10/29 10:09:28;;;;;;;16.27;10.88;;;;;;;14.59;47.79;100462.55;2125511;82;29481;-59
2021/10/29 10:12:34;;;;;;;17.20;10.88;;;;;;;14.63;47.67;100464.58;2119729;82;31019;-59
2021/10/29 10:15:36;;;;;;;16.70;10.43;;;;;;;14.67;47.26;100450.80;2123536;82;33806;-60
2021/10/29 10:18:40;;;;;;;14.25;10.38;;;;;;;14.65;46.95;100445.98;2124668;82;29329;-62
2021/10/29 10:21:45;;;;;;;15.50;9.45;;;;;;;14.67;47.07;100455.30;2132052;81;27722;-59
2021/10/29 10:25:03;;;;;;;15.90;9.15;;;;;;;14.68;46.08;100458.42;2157597;81;28651;-60
2021/10/29 10:42:08;;;;;;;15.80;8.60;;;;;;;14.82;45.38;100442.20;2113665;83;29894;-60
2021/10/29 10:45:04;;;;;;;14.18;9.73;;;;;;;14.85;46.05;100437.12;2111178;84;31045;-59
2021/10/29 10:48:15;;;;;;;16.57;8.70;;;;;;;14.88;45.62;100438.27;2116987;83;34050;-58
2021/10/29 10:51:42;;;;;;;13.68;7.75;;;;;;;14.93;45.16;100443.36;2121051;83;29331;-59
2021/10/29 10:54:57;;;;;;;13.38;8.65;;;;;;;14.93;44.59;100441.52;2121172;83;27611;-59
2021/10/29 11:01:23;;;;;;;12.85;8.30;;;;;;;14.98;44.34;100443.90;2054669;85;31846;-59
2021/10/29 11:09:53;;;;;;;14.83;8.80;;;;;;;15.02;44.08;100435.52;2041014;87;29309;-58
2021/10/29 11:11:19;;;;;;;14.00;7.55;;;;;;;15.03;43.53;100429.63;2049593;85;27698;-59
2021/10/29 11:14:35;;;;;;;9.60;8.18;;;;;;;15.06;43.10;100421.84;2074514;85;29675;-62
2021/10/29 11:18:02;;;;;;;18.70;8.15;;;;;;;15.08;42.59;100424.80;2074796;85;31072;-62
2021/10/29 11:21:22;;;;;;;12.50;8.38;;;;;;;15.08;43.13;100423.92;2071106;85;32470;-63
2021/10/29 11:24:35;;;;;;;13.38;8.68;;;;;;;15.08;42.29;100428.85;2074551;85;30043;-63
2021/10/29 11:27:40;;;;;;;11.03;9.08;;;;;;;15.08;42.78;100423.92;2072870;85;27707;-62
2021/10/29 11:30:46;;;;;;;12.50;8.80;;;;;;;15.08;42.82;100423.45;2085728;83;30022;-62
2021/10/29 11:33:51;;;;;;;13.15;8.33;;;;;;;15.08;42.58;100414.01;2132684;83;31037;-62
2021/10/29 11:36:53;;;;;;;;;;;;;;;15.08;42.38;100409.97;2135293;80;34201;-62
2021/10/29 11:39:56;;;;;;;11.43;7.42;;;;;;;15.07;41.95;100404.19;2201769;80;29324;-63
2021/10/29 11:43:01;;;;;;;13.00;8.95;;;;;;;15.06;42.42;100398.41;2192561;80;27583;-62
2021/10/29 11:46:05;;;;;;;;;;;;;;;15.06;42.05;100401.10;2194643;81;28629;-62
2021/10/29 11:49:10;;;;;;;17.65;9.70;;;;;;;15.04;41.76;100401.22;2192124;81;31229;-63
2021/10/29 11:52:14;;;;;;;17.85;9.38;;;;;;;15.02;42.04;100396.41;2192258;81;32945;-62
2021/10/29 11:55:27;;;;;;;14.13;9.50;;;;;;;14.92;41.01;100368.79;2192320;81;30229;-62
2021/10/29 11:58:49;;;;;;;16.50;10.82;;;;;;;15.03;41.29;100377.90;2191227;80;27630;-63
2021/10/29 12:08:35;;;;;;;16.40;10.28;;;;;;;15.03;41.81;100375.20;2158795;80;34140;-62
2021/10/29 12:11:35;;;;;;;16.00;9.25;;;;;;;15.04;41.43;100369.30;2191648;80;29446;-62
2021/10/29 12:14:40;;;;;;;17.80;9.33;;;;;;;15.06;41.83;100359.78;2191777;81;27702;-62
2021/10/29 12:17:52;;;;;;;18.25;9.25;;;;;;;15.06;41.83;100359.78;2192235;81;28644;-63
2021/10/29 12:20:53;;;;;;;12.63;9.18;;;;;;;15.08;41.95;100361.86;2175135;81;32238;-62
2021/10/29 12:23:56;;;;;;;15.53;8.75;;;;;;;15.11;41.68;100357.14;2151908;82;34331;-62
2021/10/29 12:27:02;;;;;;;13.28;8.45;;;;;;;15.14;41.72;100357.41;2151916;82;30317;-62
2021/10/29 12:30:32;;;;;;;17.07;8.50;;;;;;;15.17;42.09;100358.56;2154583;81;27543;-62
2021/10/29 13:04:42;;;;;;;16.02;8.78;;;;;;;15.48;41.52;100322.69;1940381;91;27700;-62
2021/10/29 13:07:43;;;;;;;15.65;10.85;;;;;;;15.51;41.09;100319.78;1903744;93;29079;-62
2021/10/29 13:10:46;;;;;;;16.12;7.97;;;;;;;15.55;41.44;100313.20;1885539;94;31255;-61
2021/10/29 13:14:01;;;;;;;13.75;8.13;;;;;;;15.56;40.83;100313.55;1885771;94;33766;-61
2021/10/29 13:17:00;;;;;;;15.83;8.08;;;;;;;15.60;40.95;100308.32;1885214;94;29353;-61
2021/10/29 13:23:44;;;;;;;14.60;7.58;;;;;;;15.67;40.93;100297.09;1916223;92;29742;-62
2021/10/29 13:36:40;;;;;;;9.93;7.10;;;;;;;15.81;40.13;100276.70;2096568;84;28588;-62
2021/10/29 13:56:34;;;;;;;11.43;7.33;;;;;;;15.99;38.95;100264.22;2186731;80;29883;-62
2021/10/29 14:29:20;;;;;;;13.08;7.08;;;;;;;15.91;38.54;100238.61;2217378;80;29878;-62
2021/10/29 14:32:33;;;;;;;;;;;;;;;15.87;38.75;100233.08;2192918;80;32418;-62
2021/10/29 14:35:36;;;;;;;13.25;7.60;;;;;;;15.83;38.89;100240.11;2153929;82;34227;-62
2021/10/29 14:38:57;;;;;;;17.65;8.13;;;;;;;15.76;38.89;100235.65;2154818;82;29619;-62
2021/10/29 14:42:16;;;;;;;18.30;8.88;;;;;;;15.69;39.18;100227.13;2138373;82;27717;-62
2021/10/29 14:45:36;;;;;;;19.02;9.45;;;;;;;15.60;38.99;100223.76;2139099;82;28627;-62
2021/10/29 14:48:43;;;;;;;12.93;7.80;;;;;;;15.53;39.26;100225.16;2167690;81;31848;-62
2021/10/29 14:52:15;;;;;;;17.03;7.73;;;;;;;15.43;39.26;100216.38;2168308;81;33730;-62
2021/10/29 15:15:35;;;;;;;15.85;8.28;;;;;;;14.54;40.61;100209.93;2130973;83;27681;-63
2021/10/29 15:18:24;;;;;;;21.00;9.48;;;;;;;14.39;40.85;100207.30;2148679;82;29606;-62
2021/10/29 15:44:28;;;;;;;24.10;12.58;;;;;;;13.64;41.10;100197.81;2051806;86;29300;-62
2021/10/29 15:47:44;;;;;;;25.52;10.15;;;;;;;13.56;41.35;100204.66;2048450;86;27693;-63
2021/10/29 15:50:41;;;;;;;19.57;10.55;;;;;;;13.47;41.34;100196.69;2018879;88;28869;-63
2021/10/29 15:53:51;;;;;;;;;;;;;;;13.37;41.45;100199.05;2021192;88;31025;-62
2021/10/29 15:57:03;;;;;;;28.45;11.73;;;;;;;13.28;41.58;100202.30;2018820;88;33636;-63
2021/10/29 16:00:23;;;;;;;23.77;11.93;;;;;;;13.16;41.75;100204.81;2019313;86;29368;-64
2021/10/29 16:03:22;;;;;;;21.05;11.60;;;;;;;13.06;41.91;100198.28;1884958;94;27920;-62
2021/10/29 16:19:43;;;;;;;29.00;15.28;;;;;;;12.65;42.48;100202.53;2020507;88;27830;-62
2021/10/29 16:22:46;;;;;;;27.35;14.63;;;;;;;12.57;42.65;100199.43;2020184;88;30046;-62
2021/10/29 16:25:53;;;;;;;28.35;15.15;;;;;;;12.44;42.83;100200.63;2020257;88;31148;-62
2021/10/29 16:28:52;;;;;;;22.58;13.62;;;;;;;12.29;43.00;100191.17;2020320;88;32911;-62
2021/10/29 16:31:56;;;;;;;27.22;12.85;;;;;;;12.18;43.23;100195.44;2021450;85;30224;-62
2021/10/29 16:34:57;;;;;;;24.72;12.00;;;;;;;12.06;43.38;100194.35;2042860;87;27792;-63
2021/10/29 16:38:00;;;;;;;24.12;11.10;;;;;;;11.93;43.51;100202.20;2042750;87;29670;-61
2021/10/29 16:41:02;;;;;;;25.50;10.82;;;;;;;11.84;43.55;100207.13;2042765;87;31201;-63
2021/10/29 16:44:06;;;;;;;21.40;10.48;;;;;;;11.77;43.66;100203.08;2039699;87;34263;-63
2021/10/29 16:47:11;;;;;;;20.23;11.43;;;;;;;11.73;43.70;100198.82;1978066;90;30161;-64
2021/10/29 16:50:15;;;;;;;21.25;13.50;;;;;;;11.69;43.80;100203.50;1985576;87;35612;-64
2021/10/29 16:53:18;;;;;;;23.50;13.45;;;;;;;11.62;43.96;100195.39;2009854;87;28832;-63
2021/10/29 16:56:21;;;;;;;22.82;14.58;;;;;;;11.56;44.05;100193.07;2024657;86;31204;-63
2021/10/29 16:59:22;;;;;;;25.85;14.38;;;;;;;11.48;44.14;100198.86;1987048;89;33191;-62
2021/10/29 17:02:24;;;;;;;26.90;14.83;;;;;;;11.40;44.34;100202.42;1986062;89;30703;-62
2021/10/29 17:05:27;;;;;;;24.57;14.68;;;;;;;11.31;44.45;100201.11;2012633;84;27688;-62
2021/10/29 17:08:29;;;;;;;28.25;14.70;;;;;;;11.24;44.52;100206.44;2153838;82;28632;-62
2021/10/29 17:11:32;;;;;;;20.80;13.50;;;;;;;11.14;44.69;100211.88;2163790;82;31002;-62
2021/10/29 17:14:33;;;;;;;30.05;14.78;;;;;;;11.03;44.87;100211.10;2163912;82;34104;-62
2021/10/29 17:17:36;;;;;;;24.90;14.73;;;;;;;10.94;44.98;100220.50;2150611;82;30570;-62
2021/10/29 17:20:40;;;;;;;29.45;14.25;;;;;;;10.85;45.14;100219.16;2127272;83;28244;-61
2021/10/29 17:23:42;;;;;;;22.80;14.83;;;;;;;10.75;45.31;100227.30;2126494;82;28699;-62
2021/10/29 17:26:44;;;;;;;31.27;14.13;;;;;;;10.62;45.52;100229.73;2134337;82;32241;-62
2021/10/29 17:29:47;;;;;;;35.10;15.25;;;;;;;10.50;45.65;100225.89;2131919;82;34002;-62
2021/10/29 17:32:50;;;;;;;69.92;45.75;;;;;;;10.40;45.94;100228.62;2138749;82;30581;-62
2021/10/29 17:35:55;;;;;;;46.88;26.15;;;;;;;10.28;46.11;100226.92;2157429;82;27638;-60
2021/10/29 17:38:57;;;;;;;32.25;17.55;;;;;;;10.19;46.30;100229.59;2160992;81;29048;-63
2021/10/29 17:42:02;;;;;;;29.77;15.35;;;;;;;10.10;46.42;100233.19;2172813;81;32233;-63
2021/10/29 17:45:08;;;;;;;34.03;15.48;;;;;;;10.00;46.70;100230.08;2168179;81;32979;-64
2021/10/29 17:48:10;;;;;;;23.30;14.28;;;;;;;9.90;46.94;100235.01;2177182;80;29520;-63
2021/10/29 17:51:12;;;;;;;29.00;13.85;;;;;;;9.80;47.15;100232.39;2179844;81;27744;-63
2021/10/29 17:54:16;;;;;;;24.70;13.10;;;;;;;9.71;47.52;100236.36;2185095;81;29483;-63
2021/10/29 17:57:20;;;;;;;25.23;13.58;;;;;;;9.64;47.63;100239.80;2185301;81;31017;-63
2021/10/29 18:00:23;;;;;;;21.93;12.00;;;;;;;9.60;47.70;100232.00;2168215;81;32464;-62
2021/10/29 18:03:26;;;;;;;19.98;12.20;;;;;;;9.57;47.87;100237.00;2158481;81;30260;-63
2021/10/29 18:06:29;;;;;;;20.80;11.73;;;;;;;9.53;47.96;100234.95;2199351;80;27669;-62
2021/10/29 18:09:36;;;;;;;24.55;11.68;;;;;;;9.51;48.22;100238.16;2177299;80;29094;-62
2021/10/29 18:12:37;;;;;;;20.72;11.57;;;;;;;9.49;48.47;100243.19;2192727;80;31195;-62
2021/10/29 18:15:44;;;;;;;27.25;11.80;;;;;;;9.49;48.57;100241.85;2151684;80;32984;-65
2021/10/29 18:18:43;;;;;;;24.67;12.33;;;;;;;9.50;48.60;100240.92;2168400;81;30520;-62
2021/10/29 18:21:46;;;;;;;29.32;15.68;;;;;;;9.51;48.86;100243.50;2160867;82;27817;-66
2021/10/29 18:24:48;;;;;;;23.77;14.28;;;;;;;9.50;48.87;100246.27;2171130;81;29886;-64
2021/10/29 18:27:50;;;;;;;22.50;13.48;;;;;;;9.47;48.95;100243.73;2179590;81;31027;-62
2021/10/29 18:30:52;;;;;;;30.88;17.48;;;;;;;9.41;48.97;100244.88;2161081;82;33772;-66